Latest Coastal Weather Observations for Minlaton Airport

IDS60701

Issued at 9:31 pm CDT Friday 30 January 2015 (issued every 10 minutes, with the page automatically refreshed every 10 minutes)

About coastal observations | Map of coastal stations | Coastal observations for SA | Marine services | Other Formats
Station Details ID: 022031 Name: MINLATON AERO Lat: -34.75 Lon: 137.53 Height: 32.0 m
Data from the previous 72 hours. | See also: Recent months at Minlaton Airport
Date/Time
CDT
Temp

°C
Wind Pressure Rain
since 9am
mm
Weather Cloud Vis
km
Sea
Height
m
Swell
Dir
 
Speed
knots
Gust
knots
hPa Trend Height
m
Period
s
Dir
30/09:30pm 16.2 SSE 19 24 1015.1 - 0.0 - - - - - - -
30/09:00pm 16.5 SSE 20 26 1014.8 - 0.0 - - - - - - -
30/08:30pm 17.0 SSE 20 24 1014.8 - 0.0 - - - - - - -
30/08:00pm 18.0 SSE 20 25 1014.7 - 0.0 - - - - - - -
30/07:30pm 19.2 SSE 21 27 1014.5 - 0.0 - - - - - - -
30/07:00pm 19.9 SSE 23 29 1014.1 - 0.0 - - - - - - -
30/06:30pm 21.2 SSE 21 27 1014.1 - 0.0 - - - - - - -
30/06:00pm 22.5 SSE 21 26 1013.9 - 0.0 - - - - - - -
30/05:30pm 23.2 SSE 21 27 1013.7 - 0.0 - - - - - - -
30/05:00pm 24.1 SSE 19 24 1013.9 - 0.0 - - - - - - -
30/04:30pm 24.3 SSE 18 23 1014.0 - 0.0 - - - - - - -
30/04:00pm 24.6 SE 17 21 1014.2 - 0.0 - - - - - - -
30/03:30pm 25.7 SSE 18 25 1014.4 - 0.0 - - - - - - -
30/03:00pm 25.5 SSE 18 25 1014.5 - 0.0 - - - - - - -
30/02:30pm 26.0 SSE 16 25 1014.8 - 0.0 - - - - - - -
30/02:00pm 25.5 SE 15 20 1015.4 - 0.0 - - - - - - -
30/01:30pm 25.4 SE 16 21 1015.4 - 0.0 - - - - - - -
30/01:00pm 25.5 SE 16 22 1015.6 - 0.0 - - - - - - -
30/12:30pm 24.9 SE 15 21 1015.8 - 0.0 - - - - - - -
30/12:00pm 25.8 SE 16 22 1016.0 - 0.0 - - - - - - -
30/11:30am 24.4 SE 13 18 1016.2 - 0.0 - - - - - - -
30/11:00am 23.8 SE 13 19 1016.2 - 0.0 - - - - - - -
30/10:30am 23.2 SE 12 17 1016.4 - 0.0 - - - - - - -
30/10:00am 22.6 SE 12 16 1016.5 - 0.0 - - - - - - -
30/09:30am 22.0 SE 13 17 1016.6 - 0.0 - - - - - - -
30/09:00am 21.2 SE 13 16 1016.5 - 0.0 - - - - - - -
30/08:30am 20.4 SE 12 16 1016.4 - 0.0 - - - - - - -
30/08:00am 18.9 SE 13 18 1016.1 - 0.0 - - - - - - -
30/07:30am 17.6 SE 14 18 1015.5 - 0.0 - - - - - - -
30/07:00am 16.7 SE 14 17 1015.2 - 0.0 - - - - - - -
30/06:30am 16.5 ESE 15 19 1014.7 - 0.0 - - - - - - -
30/06:00am 16.7 ESE 16 20 1014.6 - 0.0 - - - - - - -
30/05:30am 17.1 ESE 17 20 1014.4 - 0.0 - - - - - - -
30/05:00am 17.2 ESE 16 20 1014.2 - 0.0 - - - - - - -
30/04:30am 17.3 ESE 16 19 1014.2 - 0.0 - - - - - - -
30/04:00am 17.3 ESE 15 19 1014.3 - 0.0 - - - - - - -
30/03:30am 17.2 SE 15 18 1014.5 - 0.0 - - - - - - -
30/03:00am 17.0 SE 14 19 1014.7 - 0.0 - - - - - - -
30/02:30am 17.1 SE 14 19 1014.8 - 0.0 - - - - - - -
30/02:00am 17.0 SE 15 20 1014.9 - 0.0 - - - - - - -
30/01:30am 16.8 SE 14 18 1015.1 - 0.0 - - - - - - -
30/01:00am 17.3 SE 17 23 1015.0 - 0.0 - - - - - - -
30/12:30am 17.1 SE 16 19 1015.2 - 0.0 - - - - - - -
30/12:00am 17.1 SE 17 21 1015.4 - 0.0 - - - - - - -
 
Date/Time
CDT
Temp

°C
Wind Pressure Rain
since 9am
mm
Weather Cloud Vis
km
Sea
Height
m
Swell
Dir
 
Speed
knots
Gust
knots
hPa Trend Height
m
Period
s
Dir
29/11:30pm 17.1 SE 17 21 1015.6 - 0.0 - - - - - - -
29/11:00pm 17.2 SE 17 22 1015.6 - 0.0 - - - - - - -
29/10:30pm 17.5 SE 18 26 1015.7 - 0.0 - - - - - - -
29/10:00pm 17.5 SE 18 23 1015.6 - 0.0 - - - - - - -
29/09:30pm 17.6 SSE 19 24 1015.6 - 0.0 - - - - - - -
29/09:00pm 17.9 SE 20 27 1015.4 - 0.0 - - - - - - -
29/08:30pm 18.6 SSE 19 25 1015.3 - 0.0 - - - - - - -
29/08:00pm 20.2 SE 18 23 1015.3 - 0.0 - - - - - - -
29/07:30pm 21.9 SE 19 23 1015.1 - 0.0 - - - - - - -
29/07:00pm 23.2 SE 19 24 1014.9 - 0.0 - - - - - - -
29/06:30pm 24.6 SE 19 24 1014.6 - 0.0 - - - - - - -
29/06:00pm 26.3 SE 17 22 1014.7 - 0.0 - - - - - - -
29/05:30pm 27.1 SE 18 22 1014.7 - 0.0 - - - - - - -
29/05:00pm 27.6 SE 17 22 1014.9 - 0.0 - - - - - - -
29/04:30pm 27.5 SE 16 21 1015.0 - 0.0 - - - - - - -
29/04:00pm 28.3 ESE 14 20 1015.3 - 0.0 - - - - - - -
29/03:30pm 27.6 ESE 15 22 1015.5 - 0.0 - - - - - - -
29/03:00pm 27.5 ESE 15 21 1015.7 - 0.0 - - - - - - -
29/02:30pm 26.6 ESE 13 19 1016.0 - 0.0 - - - - - - -
29/02:00pm 26.7 ESE 15 20 1016.3 - 0.0 - - - - - - -
29/01:30pm 26.8 ESE 14 21 1016.5 - 0.0 - - - - - - -
29/01:00pm 25.5 SE 14 20 1017.0 - 0.0 - - - - - - -
29/12:30pm 26.3 ESE 14 21 1017.1 - 0.0 - - - - - - -
29/12:00pm 25.2 SE 14 19 1017.2 - 0.0 - - - - - - -
29/11:30am 24.9 SE 12 17 1017.5 - 0.0 - - - - - - -
29/11:00am 24.0 ESE 11 17 1017.6 - 0.0 - - - - - - -
29/10:30am 23.8 ESE 13 17 1017.4 - 0.0 - - - - - - -
29/10:00am 23.2 SE 13 16 1017.5 - 0.0 - - - - - - -
29/09:30am 22.5 ESE 15 19 1017.3 - 0.0 - - - - - - -
29/09:00am 21.4 ESE 19 22 1017.2 - 0.0 - - - - - - -
29/08:30am 20.3 ESE 18 23 1016.9 - 0.0 - - - - - - -
29/08:00am 19.2 ESE 18 23 1016.5 - 0.0 - - - - - - -
29/07:30am 18.0 ESE 18 23 1016.2 - 0.0 - - - - - - -
29/07:00am 16.9 ESE 17 21 1015.9 - 0.0 - - - - - - -
29/06:30am 16.5 ESE 17 19 1015.7 - 0.0 - - - - - - -
29/06:00am 16.4 ESE 16 19 1015.5 - 0.0 - - - - - - -
29/05:30am 16.5 ESE 15 17 1015.4 - 0.0 - - - - - - -
29/05:00am 16.7 ESE 15 19 1015.1 - 0.0 - - - - - - -
29/04:30am 16.5 ESE 15 18 1015.1 - 0.0 - - - - - - -
29/04:00am 16.2 SE 14 17 1015.2 - 0.0 - - - - - - -
29/03:30am 14.5 SSE 10 11 1015.6 - 0.0 - - - - - - -
29/03:00am 14.4 SSE 9 10 1015.8 - 0.0 - - - - - - -
29/02:30am 15.0 S 7 8 1015.9 - 0.0 - - - - - - -
29/02:00am 15.5 S 6 8 1016.0 - 0.0 - - - - - - -
29/01:30am 15.9 SSE 8 10 1016.1 - 0.0 - - - - - - -
29/01:00am 16.2 SSE 9 11 1016.4 - 0.0 - - - - - - -
29/12:30am 16.4 SSE 10 13 1016.5 - 0.0 - - - - - - -
29/12:00am 16.6 SSE 11 15 1016.7 - 0.0 - - - - - - -
 
Date/Time
CDT
Temp

°C
Wind Pressure Rain
since 9am
mm
Weather Cloud Vis
km
Sea
Height
m
Swell
Dir
 
Speed
knots
Gust
knots
hPa Trend Height
m
Period
s
Dir
28/11:30pm 17.0 SSE 16 21 1016.7 - 0.0 - - - - - - -
28/11:00pm 17.0 SSE 17 23 1016.8 - 0.0 - - - - - - -
28/10:30pm 16.9 SE 18 24 1016.9 - 0.0 - - - - - - -
28/10:00pm 16.8 SE 17 22 1016.8 - 0.0 - - - - - - -
28/09:30pm 16.7 SSE 16 21 1016.9 - 0.0 - - - - - - -
28/09:00pm 16.9 SSE 17 24 1016.8 - 0.0 - - - - - - -
28/08:30pm 17.4 SSE 18 24 1016.8 - 0.0 - - - - - - -
28/08:00pm 18.3 SSE 22 28 1016.4 - 0.0 - - - - - - -
28/07:30pm 19.2 SSE 20 26 1016.3 - 0.0 - - - - - - -
28/07:00pm 19.8 SSE 21 26 1015.9 - 0.0 - - - - - - -
28/06:30pm 20.8 SSE 22 30 1015.9 - 0.0 - - - - - - -
28/06:00pm 21.2 SSE 21 26 1016.0 - 0.0 - - - - - - -
28/05:30pm 22.2 SE 20 27 1016.2 - 0.0 - - - - - - -
28/05:00pm 22.1 SSE 21 28 1016.1 - 0.0 - - - - - - -
28/04:30pm 22.8 SSE 22 29 1016.3 - 0.0 - - - - - - -
28/04:00pm 22.5 SSE 22 30 1016.4 - 0.0 - - - - - - -
28/03:30pm 22.5 SSE 22 29 1016.7 - 0.0 - - - - - - -
28/03:00pm 22.5 SSE 21 31 1016.8 - 0.0 - - - - - - -
28/02:30pm 23.7 SE 20 31 1017.2 - 0.0 - - - - - - -
28/02:21pm 22.7 SE 20 31 1017.1 - 0.0 - - - - - - -
28/02:00pm 22.8 SSE 20 27 1017.5 - 0.0 - - - - - - -
28/01:30pm 22.2 SE 21 29 1017.6 - 0.0 - - - - - - -
28/01:10pm 22.4 SE 22 33 1017.6 - 0.0 - - - - - - -
28/01:00pm 22.4 SE 22 30 1017.7 - 0.0 - - - - - - -
28/12:43pm 22.9 SE 19 30 1017.8 - 0.0 - - - - - - -
28/12:30pm 22.0 SE 20 29 1017.9 - 0.0 - - - - - - -
28/12:00pm 21.8 SE 21 28 1018.0 - 0.0 - - - - - - -
28/11:30am 20.5 SE 19 25 1018.3 - 0.0 - - - - - - -
28/11:25am 20.5 SE 19 29 1018.4 - 0.0 - - - - - - -
28/11:00am 19.3 SE 19 24 1018.7 - 0.0 - - - - - - -
28/10:30am 19.3 SE 19 26 1018.3 - 0.0 - - - - - - -
28/10:00am 18.2 ESE 18 23 1018.4 - 0.0 - - - - - - -
28/09:30am 18.1 SE 19 26 1018.4 - 0.0 - - - - - - -
28/09:00am 17.5 SE 19 24 1018.3 - 0.0 - - - - - - -
28/08:30am 16.9 SE 19 25 1018.0 - 0.0 - - - - - - -
28/08:00am 16.6 SE 17 21 1017.8 - 0.0 - - - - - - -
28/07:30am 15.6 SSE 11 15 1017.6 - 0.0 - - - - - - -
28/07:00am 12.7 SE 9 10 1017.2 - 0.0 - - - - - - -
28/06:30am 12.5 SE 9 10 1016.8 - 0.0 - - - - - - -
28/06:00am 13.3 SSE 10 12 1016.7 - 0.0 - - - - - - -
28/05:30am 14.2 SE 12 15 1016.4 - 0.0 - - - - - - -
28/05:00am 14.8 SE 11 14 1016.4 - 0.0 - - - - - - -
28/04:30am 15.1 SE 13 18 1016.1 - 0.0 - - - - - - -
28/04:00am 14.9 SE 12 15 1016.2 - 0.0 - - - - - - -
28/03:30am 14.6 SE 11 14 1016.3 - 0.0 - - - - - - -
28/03:00am 14.5 SE 13 16 1016.4 - 0.0 - - - - - - -
28/02:30am 14.7 SE 14 17 1016.8 - 0.0 - - - - - - -
28/02:00am 14.4 SSE 12 15 1017.3 - 0.0 - - - - - - -
28/01:30am 14.4 SSE 10 13 1017.8 - 0.0 - - - - - - -
28/01:00am 14.1 SSE 10 13 1018.0 - 0.0 - - - - - - -
28/12:30am 14.2 SSE 10 13 1018.2 - 0.0 - - - - - - -
28/12:00am 15.1 SSE 16 21 1018.1 - 0.0 - - - - - - -
 
Date/Time
CDT
Temp

°C
Wind Pressure Rain
since 9am
mm
Weather Cloud Vis
km
Sea
Height
m
Swell
Dir
 
Speed
knots
Gust
knots
hPa Trend Height
m
Period
s
Dir
27/11:30pm 15.2 SSE 14 18 1018.2 - 0.0 - - - - - - -
27/11:00pm 15.5 SSE 16 20 1018.5 - 0.0 - - - - - - -
27/10:30pm 15.7 SSE 15 20 1018.6 - 0.0 - - - - - - -
27/10:00pm 16.4 SSE 18 23 1018.4 - 0.0 - - - - - - -

Other Formats:

Comma delimited format used in spreadsheet applications
http://www.bom.gov.au/fwo/IDS60701/IDS60701.95659.axf

JavaScript Object Notation format (JSON) in row-major order
http://www.bom.gov.au/fwo/IDS60701/IDS60701.95659.json